Time;durP1;ratioP1;P1;durP2;ratioP2;P2;SDS_P1;SDS_P2;PMS_P1;PMS_P2;Temp;Humidity;BMP_temperature;BMP_pressure;BME280_temperature;BME280_humidity;BME280_pressure;Samples;Min_cycle;Max_cycle;Signal;HPM_P1;HPM_P2
2022/08/16 07:41:19;;;;;;;8.60;4.40;;;;;;;29.18;48.04;100270.88;5820223;23;20043;-84
2022/08/16 07:44:10;;;;;;;11.18;3.75;;;;;;;29.64;46.38;100277.66;4930343;29;20047;-83
2022/08/16 07:46:55;;;;;;;4.93;4.13;;;;;;;29.23;46.30;100273.09;4943489;29;20511;-82
2022/08/16 07:49:40;;;;;;;8.18;5.05;;;;;;;29.92;45.08;100281.47;4934695;29;20058;-82
2022/08/16 07:52:25;;;;;;;7.35;4.40;;;;;;;30.01;44.48;100284.31;4940037;29;20046;-82
2022/08/16 07:55:13;;;;;;;5.10;4.28;;;;;;;30.81;42.89;100287.16;4922958;29;20055;-83
2022/08/16 07:57:58;;;;;;;7.53;4.20;;;;;;;30.90;42.78;100289.97;4936436;29;20047;-82
2022/08/16 08:00:43;;;;;;;5.93;4.45;;;;;;;30.58;43.56;100296.91;4924399;29;20051;-83
2022/08/16 08:03:28;;;;;;;8.52;4.03;;;;;;;31.48;41.74;100303.97;4927319;29;20055;-83
2022/08/16 08:06:18;;;;;;;10.55;4.55;;;;;;;31.25;42.39;100305.34;4953962;29;20065;-81
2022/08/16 08:09:04;;;;;;;9.38;4.63;;;;;;;31.20;42.44;100305.97;4963322;29;20492;-87
2022/08/16 08:11:49;;;;;;;5.30;3.67;;;;;;;31.38;40.76;100297.56;4962496;29;20054;-85
2022/08/16 08:14:35;;;;;;;11.45;3.90;;;;;;;32.33;38.69;100305.72;4960979;28;20062;-86
2022/08/16 08:17:21;;;;;;;8.57;4.10;;;;;;;32.16;38.90;100313.75;4959497;29;20046;-84
2022/08/16 08:20:10;;;;;;;7.65;4.00;;;;;;;31.48;40.27;100317.25;4957032;29;20054;-81
2022/08/16 08:22:58;;;;;;;7.43;3.65;;;;;;;32.68;38.31;100308.88;4967683;29;20115;-84
2022/08/16 08:25:44;;;;;;;3.88;2.65;;;;;;;32.94;37.47;100307.19;4948374;29;20417;-84
2022/08/16 08:28:30;;;;;;;8.88;3.80;;;;;;;33.37;36.39;100305.78;4941592;28;20046;-86
2022/08/16 08:31:21;;;;;;;5.22;3.15;;;;;;;33.96;35.18;100305.13;4942792;29;20055;-84
2022/08/16 08:34:07;;;;;;;9.32;4.55;;;;;;;33.00;35.78;100310.13;4941823;29;20424;-84
2022/08/16 08:36:52;;;;;;;4.70;3.88;;;;;;;33.90;34.93;100303.00;4933439;29;20059;-84
2022/08/16 08:39:52;;;;;;;5.50;3.30;;;;;;;34.56;33.63;100302.56;4933137;29;20046;-84
2022/08/16 08:42:42;;;;;;;3.58;2.92;;;;;;;35.20;31.56;100310.19;4932944;29;20531;-84
2022/08/16 08:45:28;;;;;;;2.97;2.67;;;;;;;35.98;31.26;100294.84;4931838;29;20050;-84
2022/08/16 08:48:14;;;;;;;4.45;2.28;;;;;;;34.78;31.45;100302.16;4934491;29;20095;-84
2022/08/16 08:50:59;;;;;;;3.83;2.10;;;;;;;35.78;30.73;100302.63;4931613;29;20051;-84
2022/08/16 08:53:45;;;;;;;2.47;2.08;;;;;;;36.94;27.70;100302.00;4917196;29;20055;-84
2022/08/16 08:56:32;;;;;;;3.15;1.98;;;;;;;37.30;27.41;100306.84;4935304;29;20059;-84
2022/08/16 08:59:22;;;;;;;5.70;2.35;;;;;;;37.32;27.05;100309.94;4929893;29;20059;-82
2022/08/16 09:02:09;;;;;;;4.82;2.70;;;;;;;37.91;26.66;100304.16;4948690;29;20054;-84
2022/08/16 09:05:02;;;;;;;3.50;1.92;;;;;;;37.64;26.81;100313.44;4941054;29;20421;-84
2022/08/16 09:07:48;;;;;;;14.55;3.75;;;;;;;38.16;26.65;100315.84;4939310;29;20050;-83
2022/08/16 09:10:34;;;;;;;5.15;2.50;;;;;;;36.28;29.03;100318.03;4955145;29;20050;-83
2022/08/16 09:13:19;;;;;;;5.50;2.00;;;;;;;37.93;26.77;100301.59;4951141;29;20050;-84
2022/08/16 09:16:07;;;;;;;9.52;2.67;;;;;;;36.64;28.18;100310.88;4955345;29;20055;-83
2022/08/16 09:18:54;;;;;;;11.68;2.97;;;;;;;34.40;32.13;100305.13;4955775;28;20054;-83
2022/08/16 09:21:40;;;;;;;3.80;2.78;;;;;;;33.16;33.98;100306.09;4966186;29;20403;-83
2022/08/16 09:24:25;;;;;;;5.85;2.13;;;;;;;32.22;35.10;100303.41;4964139;29;20046;-82
2022/08/16 09:27:10;;;;;;;3.40;2.05;;;;;;;31.24;37.79;100314.28;4943445;28;20526;-84
2022/08/16 09:29:55;;;;;;;3.67;1.55;;;;;;;30.43;38.63;100313.50;4946997;29;20058;-81
2022/08/16 09:32:40;;;;;;;4.55;2.20;;;;;;;29.67;39.30;100310.38;4960550;29;20050;-83
2022/08/16 09:35:25;;;;;;;2.75;2.13;;;;;;;30.10;39.75;100309.59;4963196;29;20565;-85
2022/08/16 09:38:12;;;;;;;3.95;1.40;;;;;;;29.88;40.71;100300.38;4940517;29;20046;-82
2022/08/16 09:40:57;;;;;;;4.07;1.80;;;;;;;29.94;40.61;100305.00;4949340;29;20050;-81
2022/08/16 09:43:43;;;;;;;11.98;2.20;;;;;;;29.49;43.68;100311.03;4955072;29;20058;-82
2022/08/16 09:46:28;;;;;;;5.47;2.33;;;;;;;29.07;44.81;100298.44;4946941;29;20055;-82
2022/08/16 09:49:13;;;;;;;4.75;2.63;;;;;;;29.07;44.42;100293.63;4947376;29;20054;-82
2022/08/16 09:51:58;;;;;;;5.10;1.77;;;;;;;29.19;42.69;100312.44;4956525;29;20058;-82
2022/08/16 09:54:43;;;;;;;1.58;0.98;;;;;;;29.40;38.48;100310.16;4949459;29;20052;-82
2022/08/16 09:57:28;;;;;;;1.77;1.35;;;;;;;29.71;39.39;100311.78;4931030;29;20424;-81
2022/08/16 10:00:14;;;;;;;1.65;1.00;;;;;;;29.17;40.96;100308.50;4928783;29;20519;-81
2022/08/16 10:02:58;;;;;;;2.15;1.95;;;;;;;29.12;40.15;100309.09;4938157;29;20055;-81
2022/08/16 10:05:44;;;;;;;2.88;1.60;;;;;;;29.06;41.53;100308.09;4942430;29;20042;-81
2022/08/16 10:08:30;;;;;;;3.05;2.00;;;;;;;28.98;41.23;100315.16;4942185;29;20058;-81
2022/08/16 10:14:20;;;;;;;3.05;1.75;;;;;;;29.38;39.94;100312.63;4935875;29;20060;-81
2022/08/16 10:17:05;;;;;;;4.90;2.72;;;;;;;29.43;40.33;100312.03;4932371;29;20054;-82
2022/08/16 10:19:51;;;;;;;2.75;2.10;;;;;;;29.66;38.28;100315.19;4932150;29;20044;-82
2022/08/16 10:22:37;;;;;;;4.75;1.40;;;;;;;29.45;40.66;100306.78;4940757;29;20062;-81
2022/08/16 10:25:23;;;;;;;3.45;1.55;;;;;;;29.20;41.75;100308.41;4927643;29;20051;-82
2022/08/16 10:28:09;;;;;;;2.35;1.70;;;;;;;28.97;41.23;100314.38;4931033;29;20075;-81
2022/08/16 10:30:54;;;;;;;2.05;1.40;;;;;;;28.91;42.28;100305.78;4942969;29;20054;-83
2022/08/16 10:33:39;;;;;;;4.47;2.08;;;;;;;29.32;41.09;100304.78;4949036;29;20050;-83
2022/08/16 10:36:24;;;;;;;4.72;1.77;;;;;;;30.07;39.83;100308.47;4927193;29;20129;-83
2022/08/16 10:39:09;;;;;;;3.75;2.85;;;;;;;30.42;38.07;100303.53;4937292;29;20051;-82
2022/08/16 10:41:53;;;;;;;8.57;1.95;;;;;;;30.42;38.67;100300.72;4928958;29;20432;-82
2022/08/16 10:44:38;;;;;;;2.28;1.90;;;;;;;30.31;38.30;100305.19;4937243;29;20389;-82
2022/08/16 10:47:24;;;;;;;6.10;2.28;;;;;;;30.50;38.58;100306.84;4938312;29;20519;-81
2022/08/16 10:50:09;;;;;;;7.60;2.13;;;;;;;31.15;38.09;100300.19;4925121;28;20055;-82
2022/08/16 10:52:54;;;;;;;3.28;2.20;;;;;;;31.43;36.17;100304.59;4927037;29;20520;-81
2022/08/16 10:55:40;;;;;;;2.50;1.90;;;;;;;31.50;36.58;100295.81;4924630;29;20306;-82
2022/08/16 10:58:26;;;;;;;2.83;2.22;;;;;;;31.79;35.17;100307.41;4937294;29;20054;-81
2022/08/16 11:01:11;;;;;;;5.13;2.63;;;;;;;31.77;34.93;100311.94;4939968;29;20055;-83
2022/08/16 11:03:55;;;;;;;5.63;1.60;;;;;;;30.88;37.65;100310.09;4926703;29;20054;-86
2022/08/16 11:06:41;;;;;;;333.50;80.75;;;;;;;30.05;39.49;100304.59;4927871;29;20047;-84
2022/08/16 11:09:26;;;;;;;307.77;68.35;;;;;;;29.83;40.30;100312.19;4917224;29;20036;-80
2022/08/16 11:12:11;;;;;;;243.02;54.58;;;;;;;29.60;40.86;100305.81;4932335;29;20424;-82
2022/08/16 11:14:56;;;;;;;102.80;23.58;;;;;;;29.30;41.75;100307.25;4932708;29;20055;-81
2022/08/16 11:17:41;;;;;;;55.83;14.30;;;;;;;29.14;42.51;100306.63;4937968;29;20040;-81
2022/08/16 11:20:27;;;;;;;18.92;5.90;;;;;;;29.27;41.61;100302.53;4922662;29;20051;-80
2022/08/16 11:23:12;;;;;;;61.63;12.88;;;;;;;29.33;41.63;100302.78;4933416;29;20043;-82
2022/08/16 11:25:57;;;;;;;38.25;11.02;;;;;;;29.26;41.59;100309.38;4929227;29;20497;-82
2022/08/16 11:28:42;;;;;;;42.45;9.73;;;;;;;29.31;41.34;100319.25;4930758;29;20051;-82
2022/08/16 11:31:26;;;;;;;19.63;5.57;;;;;;;29.50;41.31;100309.00;4939069;29;20054;-82
2022/08/16 11:34:12;;;;;;;14.88;4.78;;;;;;;29.78;40.15;100319.16;4927349;29;20496;-81
2022/08/16 11:36:59;;;;;;;39.90;12.35;;;;;;;29.75;40.44;100314.50;4935154;29;20039;-81
2022/08/16 11:39:44;;;;;;;9.88;4.07;;;;;;;29.80;40.14;100316.72;4935805;29;20052;-82
2022/08/16 11:42:28;;;;;;;23.30;7.15;;;;;;;29.63;40.71;100306.91;4935473;29;20051;-82
2022/08/16 11:45:13;;;;;;;30.52;8.48;;;;;;;29.37;41.20;100299.84;4928714;29;20051;-82
2022/08/16 11:47:59;;;;;;;6.05;2.60;;;;;;;29.51;40.90;100299.38;4921249;29;20058;-82
2022/08/16 11:50:45;;;;;;;6.75;3.00;;;;;;;29.62;40.71;100289.31;4938640;29;20055;-82
2022/08/16 11:53:32;;;;;;;12.45;4.65;;;;;;;29.43;41.41;100310.03;4924798;29;20051;-82
2022/08/16 11:56:16;;;;;;;;;;;;;;;29.25;41.53;100304.25;4925020;29;20066;-79
2022/08/16 11:59:01;;;;;;;;;;;;;;;29.03;42.31;100304.19;4932969;29;19914;-80
2022/08/16 12:01:45;;;;;;;;;;;;;;;28.87;43.06;100305.09;4939368;29;19923;-81
2022/08/16 12:04:31;;;;;;;;;;;;;;;28.87;42.91;100295.91;4932196;29;19915;-79
2022/08/16 12:07:16;;;;;;;;;;;;;;;28.88;42.47;100292.69;4915616;29;19915;-81
2022/08/16 12:10:01;;;;;;;;;;;;;;;28.97;42.67;100288.41;4937017;29;19914;-80
2022/08/16 12:12:46;;;;;;;;;;;;;;;29.05;42.01;100289.75;4932732;29;19922;-80
2022/08/16 12:15:30;;;;;;;;;;;;;;;29.36;41.35;100298.31;4937887;29;19919;-80
2022/08/16 12:18:14;;;;;;;;;;;;;;;29.14;41.91;100287.03;4928157;29;19919;-81
2022/08/16 12:20:59;;;;;;;;;;;;;;;28.97;42.73;100286.38;4914825;29;20088;-81
2022/08/16 12:23:43;;;;;;;;;;;;;;;28.85;42.88;100292.81;4923546;29;20392;-80
2022/08/16 12:26:28;;;;;;;;;;;;;;;28.78;42.99;100288.22;4929093;29;19915;-80
2022/08/16 12:29:12;;;;;;;;;;;;;;;28.85;42.46;100287.97;4917708;29;19915;-80
2022/08/16 12:31:57;;;;;;;;;;;;;;;29.08;42.10;100286.03;4933265;29;19914;-81
2022/08/16 12:34:41;;;;;;;;;;;;;;;29.16;41.78;100281.72;4930107;29;19918;-79
2022/08/16 12:37:27;;;;;;;;;;;;;;;29.03;41.91;100287.38;4933978;29;19914;-80
2022/08/16 12:40:14;;;;;;;;;;;;;;;28.93;42.42;100282.94;4924246;29;19914;-80
2022/08/16 12:43:00;;;;;;;;;;;;;;;28.84;42.49;100285.63;4931507;29;19926;-80
2022/08/16 12:45:47;;;;;;;;;;;;;;;28.86;42.46;100274.75;4911787;29;19923;-81
2022/08/16 12:51:37;;;;;;;;;;;;;;;29.05;41.67;100264.53;4939997;29;19914;-80
2022/08/16 12:54:21;;;;;;;;;;;;;;;29.01;42.00;100259.03;4939417;29;20295;-81
2022/08/16 12:57:07;;;;;;;;;;;;;;;29.09;41.88;100265.97;4939453;29;19918;-80
2022/08/16 12:59:51;;;;;;;;;;;;;;;29.06;42.08;100261.25;4940066;29;19915;-81
2022/08/16 13:02:36;;;;;;;;;;;;;;;29.20;41.61;100260.00;4920691;29;20380;-81
2022/08/16 13:05:21;;;;;;;;;;;;;;;29.21;41.94;100267.16;4941617;29;19919;-80
2022/08/16 13:08:06;;;;;;;;;;;;;;;29.25;41.79;100262.22;4938120;29;19914;-80
2022/08/16 13:10:53;;;;;;;;;;;;;;;29.27;41.62;100268.13;4924127;29;19914;-80
2022/08/16 13:13:37;;;;;;;;;;;;;;;29.24;41.66;100257.84;4939305;29;20403;-80
2022/08/16 13:16:21;;;;;;;;;;;;;;;29.24;41.85;100252.25;4912398;29;19923;-80
2022/08/16 13:19:06;;;;;;;;;;;;;;;29.36;41.45;100265.44;4921616;29;19915;-81
2022/08/16 13:21:51;;;;;;;;;;;;;;;29.52;40.96;100251.25;4927707;29;19914;-82
2022/08/16 13:24:36;;;;;;;;;;;;;;;29.39;40.92;100256.16;4926789;29;19919;-81
2022/08/16 13:27:20;;;;;;;;;;;;;;;29.37;41.14;100252.22;4942195;29;19918;-81
2022/08/16 13:30:05;;;;;;;;;;;;;;;29.50;40.75;100259.34;4912217;29;19915;-80
2022/08/16 13:32:51;;;;;;;;;;;;;;;29.39;41.35;100244.94;4906956;29;19919;-81
2022/08/16 13:35:35;;;;;;;;;;;;;;;29.49;40.92;100240.19;4913400;29;19927;-81
2022/08/16 13:38:20;;;;;;;;;;;;;;;29.38;41.15;100246.16;4935151;29;19919;-81
2022/08/16 13:41:06;;;;;;;;;;;;;;;29.27;41.28;100245.72;4933471;29;19915;-81
2022/08/16 13:43:51;;;;;;;;;;;;;;;29.17;41.88;100241.28;4929080;29;19918;-81
2022/08/16 13:46:36;;;;;;;;;;;;;;;29.27;41.68;100240.13;4939132;29;19915;-81
2022/08/16 13:49:20;;;;;;;;;;;;;;;29.32;41.65;100231.97;4935686;29;19918;-81
2022/08/16 13:52:05;;;;;;;;;;;;;;;29.55;40.94;100233.53;4926762;29;19915;-81
2022/08/16 13:54:50;;;;;;;;;;;;;;;29.53;40.97;100230.41;4922912;29;19915;-80
2022/08/16 13:57:34;;;;;;;;;;;;;;;29.49;40.97;100229.75;4919264;29;19918;-82
2022/08/16 14:00:19;;;;;;;;;;;;;;;29.63;40.76;100228.44;4922608;29;20292;-82
2022/08/16 14:03:06;;;;;;;;;;;;;;;29.83;40.59;100240.09;4907699;29;19915;-83
2022/08/16 14:05:51;;;;;;;;;;;;;;;29.90;40.47;100233.47;4909472;29;19919;-83
2022/08/16 14:08:36;;;;;;;;;;;;;;;29.92;39.82;100231.75;4931447;29;20341;-82
2022/08/16 14:11:21;;;;;;;;;;;;;;;29.96;39.61;100224.00;4935831;29;19915;-82
2022/08/16 14:14:06;;;;;;;;;;;;;;;29.91;40.11;100229.41;4934813;29;19973;-81
2022/08/16 14:16:50;;;;;;;;;;;;;;;29.77;40.05;100219.47;4950155;29;19926;-83
2022/08/16 14:19:35;;;;;;;;;;;;;;;29.70;40.56;100228.97;4944905;29;19914;-82
2022/08/16 14:22:22;;;;;;;;;;;;;;;29.55;40.99;100218.75;4927558;29;19946;-80
2022/08/16 14:25:07;;;;;;;;;;;;;;;29.46;41.12;100224.28;4942304;29;19914;-80
2022/08/16 14:27:52;;;;;;;;;;;;;;;29.59;40.35;100214.56;4942961;29;20477;-81
2022/08/16 14:30:37;;;;;;;;;;;;;;;29.59;40.45;100214.56;4922562;29;19915;-81
2022/08/16 14:33:22;;;;;;;;;;;;;;;29.51;40.97;100218.09;4931824;29;19915;-80
2022/08/16 14:36:06;;;;;;;;;;;;;;;29.45;41.20;100215.09;4930479;29;19919;-80
2022/08/16 14:38:50;;;;;;;;;;;;;;;29.39;41.11;100213.34;4931601;29;19918;-81
2022/08/16 14:41:35;;;;;;;;;;;;;;;29.51;40.57;100216.06;4928096;29;19915;-81
2022/08/16 14:44:19;;;;;;;;;;;;;;;29.75;39.85;100225.56;4936535;29;19914;-82
2022/08/16 14:47:04;;;;;;;;;;;;;;;29.84;39.91;100215.63;4952988;29;19915;-82
2022/08/16 14:49:49;;;;;;;;;;;;;;;29.72;40.22;100214.47;4933208;29;20273;-81
2022/08/16 14:52:34;;;;;;;;;;;;;;;29.59;40.20;100208.97;4948710;29;19915;-81
2022/08/16 14:55:18;;;;;;;;;;;;;;;29.76;39.71;100209.53;4940281;29;19914;-82
2022/08/16 14:58:03;;;;;;;;;;;;;;;29.71;40.28;100205.28;4952985;29;19914;-81
2022/08/16 15:00:48;;;;;;;;;;;;;;;29.70;39.74;100206.53;4951251;29;19918;-82
2022/08/16 15:03:33;;;;;;;;;;;;;;;29.58;40.29;100198.97;4959635;29;19914;-82
2022/08/16 15:06:17;;;;;;;;;;;;;;;29.75;39.40;100202.34;4959105;29;20306;-82
2022/08/16 15:09:02;;;;;;;;;;;;;;;29.69;39.75;100209.78;4950743;28;19919;-82
2022/08/16 15:11:46;;;;;;;;;;;;;;;29.66;39.84;100205.13;4958827;29;20379;-82
2022/08/16 15:14:31;;;;;;;;;;;;;;;29.58;40.17;100206.59;4958768;29;19915;-82
2022/08/16 15:17:15;;;;;;;;;;;;;;;29.45;40.47;100201.09;4959087;29;19922;-81
2022/08/16 15:20:00;;;;;;;;;;;;;;;29.65;38.77;100204.34;4948473;29;19914;-81
2022/08/16 15:22:46;;;;;;;;;;;;;;;29.47;40.32;100201.41;4958636;29;19914;-82
2022/08/16 15:25:33;;;;;;;;;;;;;;;29.52;39.68;100200.81;4957332;29;19918;-82
2022/08/16 15:28:18;;;;;;;;;;;;;;;29.56;40.08;100197.88;4937059;29;19915;-82
2022/08/16 15:31:04;;;;;;;;;;;;;;;29.57;39.96;100196.63;4931070;29;20295;-81
2022/08/16 15:33:49;;;;;;;;;;;;;;;29.63;38.77;100195.59;4911609;29;19914;-81
2022/08/16 15:36:34;;;;;;;;;;;;;;;29.75;39.32;100194.72;4948285;29;19919;-81
2022/08/16 15:39:19;;;;;;;;;;;;;;;29.61;39.85;100198.06;4951466;29;19914;-81
2022/08/16 15:42:06;;;;;;;;;;;;;;;29.65;38.92;100200.75;4938133;29;20304;-82
2022/08/16 15:44:50;;;;;;;;;;;;;;;29.65;39.11;100201.53;4937717;29;19918;-81
2022/08/16 15:47:35;;;;;;;;;;;;;;;29.58;39.62;100204.59;4948551;29;19914;-82
2022/08/16 15:50:19;;;;;;;;;;;;;;;29.64;39.32;100201.97;4953992;29;19914;-84
2022/08/16 15:53:08;;;;;;;;;;;;;;;29.60;38.67;100204.13;4943691;29;19914;-82
2022/08/16 15:55:52;;;;;;;;;;;;;;;29.52;39.51;100195.19;4951957;29;19919;-82
2022/08/16 15:58:37;;;;;;;;;;;;;;;29.49;38.86;100189.75;4925434;29;20395;-81
2022/08/16 16:01:21;;;;;;;;;;;;;;;29.54;38.60;100186.34;4930718;29;19915;-81
2022/08/16 16:04:06;;;;;;;;;;;;;;;29.67;38.86;100195.44;4924649;29;19914;-81
2022/08/16 16:06:50;;;;;;;;;;;;;;;29.52;39.18;100189.59;4928585;29;19918;-81
2022/08/16 16:09:35;;;;;;;;;;;;;;;29.52;39.69;100188.81;4949544;29;19914;-81
2022/08/16 16:12:19;;;;;;;;;;;;;;;29.44;39.50;100185.50;4956458;29;19914;-81
2022/08/16 16:15:05;;;;;;;;;;;;;;;29.43;39.58;100197.94;4957800;29;19914;-81
2022/08/16 16:17:50;;;;;;;;;;;;;;;29.39;39.72;100193.72;4957786;29;19919;-81
2022/08/16 16:20:35;;;;;;;;;;;;;;;29.40;38.20;100189.69;4946822;29;19914;-81
2022/08/16 16:23:23;;;;;;;;;;;;;;;29.46;38.97;100194.22;4956814;29;19914;-81
2022/08/16 16:26:08;;;;;;;;;;;;;;;29.32;39.91;100192.75;4957682;29;19918;-81
2022/08/16 16:28:53;;;;;;;;;;;;;;;29.42;38.01;100193.56;4946778;29;19939;-81
2022/08/16 16:31:38;;;;;;;;;;;;;;;29.33;39.53;100199.13;4958432;29;20310;-81
2022/08/16 16:34:24;;;;;;;;;;;;;;;29.44;37.90;100199.53;4958924;29;19914;-81
2022/08/16 16:37:08;;;;;;;;;;;;;;;29.46;37.76;100191.41;4958393;29;19918;-80
2022/08/16 16:39:53;;;;;;;;;;;;;;;29.43;38.22;100203.56;4957613;29;19914;-81
2022/08/16 16:42:39;;;;;;;;;;;;;;;29.36;39.57;100191.84;4956636;29;19914;-80
2022/08/16 16:45:24;;;;;;;;;;;;;;;29.30;38.45;100189.59;4946867;29;19914;-81
2022/08/16 16:48:08;;;;;;;;;;;;;;;29.33;39.21;100187.91;4944774;29;20371;-81
2022/08/16 16:50:54;;;;;;;;;;;;;;;29.36;37.76;100189.03;4956894;29;19918;-81
2022/08/16 16:53:40;;;;;;;;;;;;;;;29.38;38.93;100190.13;4957138;29;20295;-81
2022/08/16 16:56:28;;;;;;;;;;;;;;;29.34;38.57;100195.09;4956691;29;19926;-81
2022/08/16 16:59:13;;;;;;;;;;;;;;;29.29;39.33;100187.25;4936843;29;19963;-80
2022/08/16 17:01:58;;;;;;;;;;;;;;;29.23;39.50;100186.25;4940266;29;19914;-80
2022/08/16 17:04:42;;;;;;;;;;;;;;;29.25;39.28;100184.59;4933392;29;19914;-81
2022/08/16 17:07:27;;;;;;;;;;;;;;;29.20;39.46;100195.59;4936956;29;19915;-81
2022/08/16 17:10:12;;;;;;;;;;;;;;;29.18;39.44;100187.63;4938035;29;20379;-81
2022/08/16 17:12:57;;;;;;;;;;;;;;;29.15;39.95;100184.97;4937450;29;19915;-81
2022/08/16 17:15:42;;;;;;;;;;;;;;;29.12;39.90;100183.06;4937684;29;20291;-80
2022/08/16 17:18:26;;;;;;;;;;;;;;;29.05;40.09;100184.13;4937546;29;20372;-81
2022/08/16 17:21:11;;;;;;;;;;;;;;;29.07;40.46;100176.03;4937575;29;20307;-81
2022/08/16 17:23:55;;;;;;;;;;;;;;;29.04;40.52;100182.53;4937890;29;19929;-81
2022/08/16 17:26:39;;;;;;;;;;;;;;;29.05;40.20;100183.34;4938076;29;19915;-81
2022/08/16 17:29:24;;;;;;;;;;;;;;;29.02;40.48;100181.41;4926760;29;20291;-81
2022/08/16 17:32:10;;;;;;;;;;;;;;;29.03;40.49;100185.78;4937596;29;19915;-81
2022/08/16 17:34:55;;;;;;;;;;;;;;;29.01;40.69;100183.44;4943855;29;19914;-81
2022/08/16 17:37:40;;;;;;;;;;;;;;;29.03;40.80;100191.41;4938933;29;19923;-80
2022/08/16 17:40:26;;;;;;;;;;;;;;;29.06;40.88;100190.47;4927961;29;19915;-80
2022/08/16 17:43:12;;;;;;;;;;;;;;;29.03;40.98;100191.41;4930278;28;19918;-81
2022/08/16 17:45:57;;;;;;;;;;;;;;;29.04;40.88;100192.97;4941283;28;19919;-82
2022/08/16 17:48:42;;;;;;;;;;;;;;;29.02;40.73;100199.00;4941141;29;20307;-80
2022/08/16 17:51:27;;;;;;;;;;;;;;;29.07;41.21;100200.44;4949515;29;19919;-81
2022/08/16 17:54:12;;;;;;;;;;;;;;;29.06;41.06;100202.47;4933233;29;19915;-80
2022/08/16 17:56:57;;;;;;;;;;;;;;;29.06;41.34;100204.47;4929686;29;19919;-80
2022/08/16 17:59:42;;;;;;;;;;;;;;;29.03;41.21;100203.38;4947133;29;19914;-80
2022/08/16 18:02:27;;;;;;;;;;;;;;;29.01;41.78;100205.06;4944511;29;19915;-81
2022/08/16 18:05:13;;;;;;;;;;;;;;;29.00;41.50;100209.13;4937414;29;19919;-81
2022/08/16 18:07:58;;;;;;;;;;;;;;;28.98;41.94;100209.56;4931279;29;19922;-81
2022/08/16 18:10:42;;;;;;;;;;;;;;;28.98;41.43;100211.56;4943998;29;19914;-81
2022/08/16 18:13:27;;;;;;;;;;;;;;;28.97;41.59;100210.78;4946158;29;19915;-81
2022/08/16 18:16:14;;;;;;;;;;;;;;;28.97;42.09;100212.81;4945802;29;19918;-81
2022/08/16 18:18:59;;;;;;;;;;;;;;;28.94;41.92;100211.69;4931839;28;19915;-81
2022/08/16 18:24:48;;;;;;;;;;;;;;;28.87;42.05;100209.94;4954873;29;19914;-81
2022/08/16 18:27:32;;;;;;;;;;;;;;;28.83;43.04;100219.69;4952581;29;19914;-81
2022/08/16 18:30:17;;;;;;;;;;;;;;;28.78;42.77;100221.03;4924295;29;19914;-81
2022/08/16 18:33:02;;;;;;;;;;;;;;;28.75;43.25;100210.72;4935808;29;19915;-81
2022/08/16 18:35:47;;;;;;;;;;;;;;;28.63;43.46;100197.53;4936541;29;19914;-81
2022/08/16 18:38:32;;;;;;;;;;;;;;;28.68;44.05;100222.16;4920960;29;19915;-81
2022/08/16 18:41:17;;;;;;;;;;;;;;;28.65;44.47;100225.84;4934858;29;19930;-81
2022/08/16 18:44:01;;;;;;;;;;;;;;;28.65;44.56;100233.47;4935266;29;19915;-81
2022/08/16 18:46:47;;;;;;;;;;;;;;;28.63;45.18;100233.13;4918926;29;19922;-81
2022/08/16 18:49:32;;;;;;;;;;;;;;;28.62;46.50;100237.94;4930837;29;19914;-81
2022/08/16 18:52:17;;;;;;;;;;;;;;;28.60;46.25;100232.00;4919879;29;20367;-81
2022/08/16 18:55:02;;;;;;;;;;;;;;;28.59;46.54;100238.84;4918885;29;20287;-80
2022/08/16 18:57:47;;;;;;;;;;;;;;;28.56;46.58;100234.13;4932051;29;19923;-81
2022/08/16 19:00:34;;;;;;;;;;;;;;;28.54;47.64;100242.22;4933992;29;19915;-81
2022/08/16 19:03:21;;;;;;;;;;;;;;;28.53;47.43;100237.84;4930601;29;20299;-80
2022/08/16 19:06:11;;;;;;;;;;;;;;;28.50;47.77;100244.31;4916421;29;19915;-81
2022/08/16 19:08:55;;;;;;;;;;;;;;;28.49;48.15;100245.59;4929923;29;19915;-81
2022/08/16 19:11:40;;;;;;;;;;;;;;;28.45;48.48;100242.09;4932683;29;19914;-81
2022/08/16 19:14:28;;;;;;;;;;;;;;;28.43;48.91;100252.97;4931523;29;19914;-80
2022/08/16 19:17:13;;;;;;;;;;;;;;;28.40;48.75;100251.84;4922903;29;19918;-81
2022/08/16 19:19:57;;;;;;;;;;;;;;;28.38;49.06;100253.53;4929626;29;19915;-80
2022/08/16 19:22:42;;;;;;;;;;;;;;;28.36;49.21;100253.19;4922863;29;19930;-81
2022/08/16 19:25:29;;;;;;;;;;;;;;;28.36;48.68;100258.78;4938998;28;20389;-81
2022/08/16 19:28:15;;;;;;;;;;;;;;;28.35;48.85;100260.78;4926703;29;19919;-81
2022/08/16 19:31:00;;;;;;;;;;;;;;;28.33;48.60;100273.66;4925420;29;19915;-80
2022/08/16 19:33:46;;;;;;;;;;;;;;;28.33;48.40;100268.06;4946254;29;19915;-81
2022/08/16 19:36:33;;;;;;;;;;;;;;;28.34;48.61;100272.44;4930522;29;19919;-80
2022/08/16 19:39:17;;;;;;;;;;;;;;;28.34;48.17;100276.00;4933946;29;19915;-80
2022/08/16 19:42:09;;;;;;;;;;;;;;;28.34;48.11;100278.03;4920892;29;20394;-81
2022/08/16 19:44:56;;;;;;;;;;;;;;;28.34;48.27;100280.84;4933725;29;19923;-80
2022/08/16 19:47:41;;;;;;;;;;;;;;;28.35;48.13;100276.78;4923159;29;19918;-80
2022/08/16 19:50:27;;;;;;;;;;;;;;;28.37;47.67;100282.72;4939395;29;19914;-81
2022/08/16 19:53:13;;;;;;;;;;;;;;;28.40;47.69;100287.41;4932566;29;19915;-80
2022/08/16 19:55:58;;;;;;;;;;;;;;;28.42;47.57;100294.16;4947640;29;19914;-80
2022/08/16 19:58:43;;;;;;;;;;;;;;;28.43;46.92;100298.50;4950044;29;19914;-81
2022/08/16 20:01:28;;;;;;;;;;;;;;;28.45;46.60;100298.03;4936490;29;19915;-81
2022/08/16 20:04:12;;;;;;;;;;;;;;;28.44;47.03;100302.09;4936442;29;19914;-81
2022/08/16 20:06:57;;;;;;;;;;;;;;;28.44;46.81;100310.50;4924564;29;19919;-80
2022/08/16 20:09:41;;;;;;;;;;;;;;;28.41;46.62;100306.56;4938573;29;19918;-80
2022/08/16 20:12:26;;;;;;;;;;;;;;;28.41;46.84;100308.56;4923983;29;19914;-80
2022/08/16 20:15:16;;;;;;;;;;;;;;;28.40;46.71;100312.59;4927978;29;19918;-80
2022/08/16 20:18:00;;;;;;;;;;;;;;;28.39;46.98;100314.59;4938216;29;19922;-80
2022/08/16 20:20:46;;;;;;;;;;;;;;;28.38;46.74;100320.66;4938044;29;19914;-80
2022/08/16 20:23:31;;;;;;;;;;;;;;;28.36;46.71;100317.53;4938463;29;19926;-80
2022/08/16 20:26:17;;;;;;;;;;;;;;;28.36;46.92;100325.91;4938188;29;19915;-81
2022/08/16 20:29:02;;;;;;;;;;;;;;;28.34;46.86;100326.34;4924264;29;19919;-80
2022/08/16 20:31:46;;;;;;;;;;;;;;;28.34;47.18;100326.34;4938040;29;20388;-81
2022/08/16 20:34:31;;;;;;;;;;;;;;;28.34;46.81;100331.19;4923254;29;19915;-81
2022/08/16 20:37:15;;;;;;;;;;;;;;;28.35;47.58;100338.31;4941782;28;19918;-81
2022/08/16 20:40:00;;;;;;;;;;;;;;;28.35;47.62;100338.31;4935723;29;19914;-80
2022/08/16 20:42:56;;;;;;;;;;;;;;;28.34;47.04;100342.38;4953391;29;20306;-81
2022/08/16 20:45:43;;;;;;;;;;;;;;;28.33;47.52;100346.41;4934657;29;19919;-80
2022/08/16 20:48:27;;;;;;;;;;;;;;;28.31;47.78;100348.84;4949706;29;20294;-80
2022/08/16 20:51:12;;;;;;;;;;;;;;;28.29;47.57;100346.47;4954689;29;19915;-81
2022/08/16 20:53:56;;;;;;;;;;;;;;;28.28;48.09;100350.53;4942450;29;20375;-81
2022/08/16 20:56:41;;;;;;;;;;;;;;;28.24;47.60;100343.47;4938502;29;19918;-81
2022/08/16 20:59:25;;;;;;;;;;;;;;;28.22;47.76;100357.09;4923470;29;19914;-81
2022/08/16 21:02:12;;;;;;;;;;;;;;;28.21;48.27;100361.13;4913313;29;20410;-80
2022/08/16 21:04:56;;;;;;;;;;;;;;;28.20;48.00;100353.97;4928326;29;19914;-80
2022/08/16 21:07:40;;;;;;;;;;;;;;;28.22;47.77;100357.09;4932889;29;19914;-80
2022/08/16 21:10:25;;;;;;;;;;;;;;;28.21;47.81;100355.53;4927884;29;20387;-80
2022/08/16 21:13:11;;;;;;;;;;;;;;;28.20;48.36;100365.16;4921649;29;19915;-79
2022/08/16 21:15:56;;;;;;;;;;;;;;;28.17;48.10;100361.25;4908262;29;19914;-78
2022/08/16 21:18:41;;;;;;;;;;;;;;;28.10;48.63;100364.22;4922155;29;19919;-81
2022/08/16 21:21:26;;;;;;;;;;;;;;;27.91;49.58;100370.75;4936275;29;20304;-81
2022/08/16 21:24:10;;;;;;;;;;;;;;;27.78;49.80;100372.72;4917610;29;19923;-81
2022/08/16 21:26:55;;;;;;;;;;;;;;;27.68;49.92;100369.00;4928380;29;19915;-81
2022/08/16 21:29:39;;;;;;;;;;;;;;;27.60;50.42;100373.97;4931020;29;19914;-81
2022/08/16 21:32:24;;;;;;;;;;;;;;;27.50;50.52;100366.66;4927535;29;19915;-81